sensor_id;sensor_type;location;lat;lon;timestamp;P1;durP1;ratioP1;P2;durP2;ratioP2
41263;SDS011;26998;48.714;9.414;2023-05-14T00:00:00;10.70;;;9.48;;
41263;SDS011;26998;48.714;9.414;2023-05-14T00:02:27;9.55;;;8.55;;
41263;SDS011;26998;48.714;9.414;2023-05-14T00:04:53;12.07;;;9.70;;
41263;SDS011;26998;48.714;9.414;2023-05-14T00:07:20;10.52;;;9.43;;
41263;SDS011;26998;48.714;9.414;2023-05-14T00:09:46;11.85;;;9.07;;
41263;SDS011;26998;48.714;9.414;2023-05-14T00:12:13;10.52;;;8.80;;
41263;SDS011;26998;48.714;9.414;2023-05-14T00:14:40;12.07;;;9.45;;
41263;SDS011;26998;48.714;9.414;2023-05-14T00:17:06;12.13;;;9.43;;
41263;SDS011;26998;48.714;9.414;2023-05-14T00:19:33;11.88;;;10.02;;
41263;SDS011;26998;48.714;9.414;2023-05-14T00:21:59;13.85;;;11.18;;
41263;SDS011;26998;48.714;9.414;2023-05-14T00:24:26;12.85;;;10.93;;
41263;SDS011;26998;48.714;9.414;2023-05-14T00:26:52;12.60;;;9.45;;
41263;SDS011;26998;48.714;9.414;2023-05-14T00:29:19;12.88;;;10.25;;
41263;SDS011;26998;48.714;9.414;2023-05-14T00:31:48;11.35;;;9.40;;
41263;SDS011;26998;48.714;9.414;2023-05-14T00:34:14;11.98;;;9.40;;
41263;SDS011;26998;48.714;9.414;2023-05-14T00:36:41;10.52;;;8.85;;
41263;SDS011;26998;48.714;9.414;2023-05-14T00:39:07;13.65;;;9.95;;
41263;SDS011;26998;48.714;9.414;2023-05-14T00:41:34;10.65;;;9.55;;
41263;SDS011;26998;48.714;9.414;2023-05-14T00:44:01;21.92;;;15.80;;
41263;SDS011;26998;48.714;9.414;2023-05-14T00:46:28;20.98;;;14.93;;
41263;SDS011;26998;48.714;9.414;2023-05-14T00:48:54;15.90;;;13.20;;
41263;SDS011;26998;48.714;9.414;2023-05-14T00:51:21;12.60;;;10.35;;
41263;SDS011;26998;48.714;9.414;2023-05-14T00:53:48;11.38;;;9.35;;
41263;SDS011;26998;48.714;9.414;2023-05-14T00:56:16;11.00;;;9.80;;
41263;SDS011;26998;48.714;9.414;2023-05-14T00:58:43;11.25;;;9.23;;
41263;SDS011;26998;48.714;9.414;2023-05-14T01:01:09;10.07;;;8.52;;
41263;SDS011;26998;48.714;9.414;2023-05-14T01:03:36;9.00;;;7.95;;
41263;SDS011;26998;48.714;9.414;2023-05-14T01:06:17;9.90;;;8.90;;
41263;SDS011;26998;48.714;9.414;2023-05-14T01:09:06;9.18;;;7.75;;
41263;SDS011;26998;48.714;9.414;2023-05-14T01:12:28;8.27;;;7.22;;
41263;SDS011;26998;48.714;9.414;2023-05-14T01:14:39;9.63;;;7.35;;
41263;SDS011;26998;48.714;9.414;2023-05-14T01:17:13;9.43;;;7.25;;
41263;SDS011;26998;48.714;9.414;2023-05-14T01:19:42;10.50;;;7.72;;
41263;SDS011;26998;48.714;9.414;2023-05-14T01:22:11;10.80;;;7.88;;
41263;SDS011;26998;48.714;9.414;2023-05-14T01:24:38;7.53;;;6.78;;
41263;SDS011;26998;48.714;9.414;2023-05-14T01:29:39;9.27;;;7.65;;
41263;SDS011;26998;48.714;9.414;2023-05-14T01:32:10;8.90;;;7.38;;
41263;SDS011;26998;48.714;9.414;2023-05-14T01:34:38;10.07;;;7.20;;
41263;SDS011;26998;48.714;9.414;2023-05-14T01:37:06;8.98;;;6.60;;
41263;SDS011;26998;48.714;9.414;2023-05-14T01:39:36;8.63;;;6.83;;
41263;SDS011;26998;48.714;9.414;2023-05-14T01:42:04;8.77;;;7.13;;
41263;SDS011;26998;48.714;9.414;2023-05-14T01:44:33;7.75;;;6.78;;
41263;SDS011;26998;48.714;9.414;2023-05-14T01:46:59;8.57;;;6.20;;
41263;SDS011;26998;48.714;9.414;2023-05-14T01:49:26;8.77;;;7.53;;
41263;SDS011;26998;48.714;9.414;2023-05-14T01:51:53;8.43;;;7.40;;
41263;SDS011;26998;48.714;9.414;2023-05-14T01:54:19;7.60;;;6.68;;
41263;SDS011;26998;48.714;9.414;2023-05-14T01:56:46;10.25;;;7.63;;
41263;SDS011;26998;48.714;9.414;2023-05-14T01:59:12;9.45;;;8.02;;
41263;SDS011;26998;48.714;9.414;2023-05-14T02:01:39;10.88;;;8.02;;
41263;SDS011;26998;48.714;9.414;2023-05-14T02:04:05;13.05;;;10.68;;
41263;SDS011;26998;48.714;9.414;2023-05-14T02:06:32;15.88;;;10.57;;
41263;SDS011;26998;48.714;9.414;2023-05-14T02:09:00;13.10;;;11.15;;
41263;SDS011;26998;48.714;9.414;2023-05-14T02:11:27;11.80;;;9.98;;
41263;SDS011;26998;48.714;9.414;2023-05-14T02:13:53;10.73;;;9.63;;
41263;SDS011;26998;48.714;9.414;2023-05-14T02:16:20;12.30;;;10.18;;
41263;SDS011;26998;48.714;9.414;2023-05-14T02:18:46;10.18;;;9.10;;
41263;SDS011;26998;48.714;9.414;2023-05-14T02:21:13;11.82;;;10.25;;
41263;SDS011;26998;48.714;9.414;2023-05-14T02:23:41;13.43;;;9.90;;
41263;SDS011;26998;48.714;9.414;2023-05-14T02:26:09;10.93;;;9.18;;
41263;SDS011;26998;48.714;9.414;2023-05-14T02:28:36;11.85;;;8.95;;
41263;SDS011;26998;48.714;9.414;2023-05-14T02:31:02;11.32;;;9.13;;
41263;SDS011;26998;48.714;9.414;2023-05-14T02:33:29;10.40;;;8.68;;
41263;SDS011;26998;48.714;9.414;2023-05-14T02:35:55;10.48;;;8.63;;
41263;SDS011;26998;48.714;9.414;2023-05-14T02:38:22;10.23;;;8.07;;
41263;SDS011;26998;48.714;9.414;2023-05-14T02:40:48;8.50;;;7.45;;
41263;SDS011;26998;48.714;9.414;2023-05-14T02:43:15;9.57;;;7.70;;
41263;SDS011;26998;48.714;9.414;2023-05-14T02:45:42;10.48;;;7.72;;
41263;SDS011;26998;48.714;9.414;2023-05-14T02:48:08;11.05;;;7.97;;
41263;SDS011;26998;48.714;9.414;2023-05-14T02:50:35;9.77;;;7.75;;
41263;SDS011;26998;48.714;9.414;2023-05-14T02:53:01;10.93;;;9.13;;
41263;SDS011;26998;48.714;9.414;2023-05-14T02:55:28;10.48;;;8.15;;
41263;SDS011;26998;48.714;9.414;2023-05-14T02:57:55;10.07;;;8.32;;
41263;SDS011;26998;48.714;9.414;2023-05-14T03:00:22;10.05;;;8.23;;
41263;SDS011;26998;48.714;9.414;2023-05-14T03:02:49;12.85;;;9.07;;
41263;SDS011;26998;48.714;9.414;2023-05-14T03:05:16;9.52;;;8.13;;
41263;SDS011;26998;48.714;9.414;2023-05-14T03:07:43;9.65;;;8.35;;
41263;SDS011;26998;48.714;9.414;2023-05-14T03:10:09;11.05;;;8.13;;
41263;SDS011;26998;48.714;9.414;2023-05-14T03:12:36;9.50;;;8.43;;
41263;SDS011;26998;48.714;9.414;2023-05-14T03:15:02;12.32;;;8.98;;
41263;SDS011;26998;48.714;9.414;2023-05-14T03:17:29;11.00;;;8.68;;
41263;SDS011;26998;48.714;9.414;2023-05-14T03:19:56;10.80;;;7.78;;
41263;SDS011;26998;48.714;9.414;2023-05-14T03:22:22;8.88;;;7.60;;
41263;SDS011;26998;48.714;9.414;2023-05-14T03:24:49;9.52;;;8.52;;
41263;SDS011;26998;48.714;9.414;2023-05-14T03:27:16;9.30;;;7.57;;
41263;SDS011;26998;48.714;9.414;2023-05-14T03:29:42;11.25;;;7.95;;
41263;SDS011;26998;48.714;9.414;2023-05-14T03:32:09;14.05;;;7.97;;
41263;SDS011;26998;48.714;9.414;2023-05-14T03:34:35;10.80;;;7.95;;
41263;SDS011;26998;48.714;9.414;2023-05-14T03:37:02;9.63;;;6.90;;
41263;SDS011;26998;48.714;9.414;2023-05-14T03:39:29;11.02;;;8.65;;
41263;SDS011;26998;48.714;9.414;2023-05-14T03:41:56;9.70;;;7.70;;
41263;SDS011;26998;48.714;9.414;2023-05-14T03:44:23;9.13;;;8.07;;
41263;SDS011;26998;48.714;9.414;2023-05-14T03:46:50;11.00;;;8.38;;
41263;SDS011;26998;48.714;9.414;2023-05-14T03:49:16;8.77;;;7.88;;
41263;SDS011;26998;48.714;9.414;2023-05-14T03:51:43;9.68;;;8.50;;
41263;SDS011;26998;48.714;9.414;2023-05-14T03:54:10;7.93;;;6.97;;
41263;SDS011;26998;48.714;9.414;2023-05-14T03:56:36;7.97;;;6.43;;
41263;SDS011;26998;48.714;9.414;2023-05-14T03:59:03;12.30;;;8.07;;
41263;SDS011;26998;48.714;9.414;2023-05-14T04:01:29;10.32;;;7.47;;
41263;SDS011;26998;48.714;9.414;2023-05-14T04:03:56;8.27;;;7.47;;
41263;SDS011;26998;48.714;9.414;2023-05-14T04:06:23;7.40;;;6.60;;
41263;SDS011;26998;48.714;9.414;2023-05-14T04:08:50;8.43;;;7.55;;
41263;SDS011;26998;48.714;9.414;2023-05-14T04:11:16;9.43;;;7.80;;
41263;SDS011;26998;48.714;9.414;2023-05-14T04:13:42;9.88;;;7.57;;
41263;SDS011;26998;48.714;9.414;2023-05-14T04:16:10;11.32;;;8.38;;
41263;SDS011;26998;48.714;9.414;2023-05-14T04:18:36;9.20;;;8.20;;
41263;SDS011;26998;48.714;9.414;2023-05-14T04:21:03;12.77;;;8.38;;
41263;SDS011;26998;48.714;9.414;2023-05-14T04:23:29;8.85;;;7.95;;
41263;SDS011;26998;48.714;9.414;2023-05-14T04:25:56;9.50;;;7.93;;
41263;SDS011;26998;48.714;9.414;2023-05-14T04:28:23;8.90;;;8.10;;
41263;SDS011;26998;48.714;9.414;2023-05-14T04:30:50;8.98;;;7.95;;
41263;SDS011;26998;48.714;9.414;2023-05-14T04:33:16;10.75;;;9.65;;
41263;SDS011;26998;48.714;9.414;2023-05-14T04:35:43;10.88;;;9.63;;
41263;SDS011;26998;48.714;9.414;2023-05-14T04:38:10;10.77;;;9.45;;
41263;SDS011;26998;48.714;9.414;2023-05-14T04:40:37;14.13;;;11.02;;
41263;SDS011;26998;48.714;9.414;2023-05-14T04:43:03;11.88;;;10.02;;
41263;SDS011;26998;48.714;9.414;2023-05-14T04:45:30;12.20;;;10.35;;
41263;SDS011;26998;48.714;9.414;2023-05-14T04:47:59;12.18;;;10.38;;
41263;SDS011;26998;48.714;9.414;2023-05-14T04:50:26;13.77;;;9.95;;
41263;SDS011;26998;48.714;9.414;2023-05-14T04:52:53;11.68;;;10.48;;
41263;SDS011;26998;48.714;9.414;2023-05-14T04:55:20;13.98;;;11.35;;
41263;SDS011;26998;48.714;9.414;2023-05-14T04:57:47;11.43;;;10.23;;
41263;SDS011;26998;48.714;9.414;2023-05-14T05:00:15;10.15;;;9.15;;
41263;SDS011;26998;48.714;9.414;2023-05-14T05:02:42;12.32;;;8.88;;
41263;SDS011;26998;48.714;9.414;2023-05-14T05:05:09;9.98;;;8.23;;
41263;SDS011;26998;48.714;9.414;2023-05-14T05:07:35;9.57;;;8.25;;
41263;SDS011;26998;48.714;9.414;2023-05-14T05:10:02;9.70;;;8.63;;
41263;SDS011;26998;48.714;9.414;2023-05-14T05:12:29;10.75;;;8.60;;
41263;SDS011;26998;48.714;9.414;2023-05-14T05:14:56;11.10;;;9.50;;
41263;SDS011;26998;48.714;9.414;2023-05-14T05:17:23;10.68;;;9.23;;
41263;SDS011;26998;48.714;9.414;2023-05-14T05:19:50;10.35;;;9.20;;
41263;SDS011;26998;48.714;9.414;2023-05-14T05:22:17;11.00;;;9.80;;
41263;SDS011;26998;48.714;9.414;2023-05-14T05:24:44;9.75;;;8.60;;
41263;SDS011;26998;48.714;9.414;2023-05-14T05:27:13;10.45;;;8.57;;
41263;SDS011;26998;48.714;9.414;2023-05-14T05:29:39;11.93;;;9.05;;
41263;SDS011;26998;48.714;9.414;2023-05-14T05:32:06;13.15;;;8.93;;
41263;SDS011;26998;48.714;9.414;2023-05-14T05:34:33;8.27;;;7.47;;
41263;SDS011;26998;48.714;9.414;2023-05-14T05:37:00;9.32;;;8.18;;
41263;SDS011;26998;48.714;9.414;2023-05-14T05:39:27;8.63;;;7.72;;
41263;SDS011;26998;48.714;9.414;2023-05-14T05:41:53;9.57;;;8.38;;
41263;SDS011;26998;48.714;9.414;2023-05-14T05:44:20;11.25;;;8.82;;
41263;SDS011;26998;48.714;9.414;2023-05-14T05:46:46;11.65;;;9.10;;
41263;SDS011;26998;48.714;9.414;2023-05-14T05:49:13;13.45;;;9.55;;
41263;SDS011;26998;48.714;9.414;2023-05-14T05:51:39;10.50;;;9.38;;
41263;SDS011;26998;48.714;9.414;2023-05-14T05:54:06;12.63;;;9.23;;
41263;SDS011;26998;48.714;9.414;2023-05-14T05:56:32;10.30;;;9.27;;
41263;SDS011;26998;48.714;9.414;2023-05-14T05:58:59;10.65;;;9.45;;
41263;SDS011;26998;48.714;9.414;2023-05-14T06:01:26;10.77;;;8.60;;
41263;SDS011;26998;48.714;9.414;2023-05-14T06:03:52;11.25;;;9.90;;
41263;SDS011;26998;48.714;9.414;2023-05-14T06:06:19;11.68;;;9.88;;
41263;SDS011;26998;48.714;9.414;2023-05-14T06:08:45;12.70;;;10.82;;
41263;SDS011;26998;48.714;9.414;2023-05-14T06:11:12;15.10;;;12.73;;
41263;SDS011;26998;48.714;9.414;2023-05-14T06:13:38;11.43;;;10.25;;
41263;SDS011;26998;48.714;9.414;2023-05-14T06:16:06;12.77;;;10.13;;
41263;SDS011;26998;48.714;9.414;2023-05-14T06:18:34;13.25;;;11.85;;
41263;SDS011;26998;48.714;9.414;2023-05-14T06:21:00;13.15;;;11.73;;
41263;SDS011;26998;48.714;9.414;2023-05-14T06:23:28;15.98;;;12.48;;
41263;SDS011;26998;48.714;9.414;2023-05-14T06:25:55;12.25;;;10.95;;
41263;SDS011;26998;48.714;9.414;2023-05-14T06:28:21;13.45;;;9.98;;
41263;SDS011;26998;48.714;9.414;2023-05-14T06:30:51;14.80;;;11.93;;
41263;SDS011;26998;48.714;9.414;2023-05-14T06:33:17;13.35;;;11.90;;
41263;SDS011;26998;48.714;9.414;2023-05-14T06:35:45;17.08;;;12.75;;
41263;SDS011;26998;48.714;9.414;2023-05-14T06:38:12;14.02;;;11.10;;
41263;SDS011;26998;48.714;9.414;2023-05-14T06:40:38;12.48;;;10.43;;
41263;SDS011;26998;48.714;9.414;2023-05-14T06:43:05;12.82;;;10.93;;
41263;SDS011;26998;48.714;9.414;2023-05-14T06:45:32;17.08;;;11.95;;
41263;SDS011;26998;48.714;9.414;2023-05-14T06:47:58;13.48;;;11.00;;
41263;SDS011;26998;48.714;9.414;2023-05-14T06:50:25;12.63;;;10.95;;
41263;SDS011;26998;48.714;9.414;2023-05-14T06:52:51;14.07;;;10.90;;
41263;SDS011;26998;48.714;9.414;2023-05-14T06:55:18;13.07;;;10.82;;
41263;SDS011;26998;48.714;9.414;2023-05-14T06:57:45;13.10;;;10.43;;
41263;SDS011;26998;48.714;9.414;2023-05-14T07:00:12;13.20;;;10.57;;
41263;SDS011;26998;48.714;9.414;2023-05-14T07:02:40;14.43;;;10.52;;
41263;SDS011;26998;48.714;9.414;2023-05-14T07:05:08;14.40;;;11.60;;
41263;SDS011;26998;48.714;9.414;2023-05-14T07:07:36;12.55;;;10.57;;
41263;SDS011;26998;48.714;9.414;2023-05-14T07:10:03;12.55;;;11.32;;
41263;SDS011;26998;48.714;9.414;2023-05-14T07:12:30;12.93;;;10.68;;
41263;SDS011;26998;48.714;9.414;2023-05-14T07:14:57;12.98;;;11.32;;
41263;SDS011;26998;48.714;9.414;2023-05-14T07:17:23;12.70;;;11.05;;
41263;SDS011;26998;48.714;9.414;2023-05-14T07:19:51;17.98;;;10.88;;
41263;SDS011;26998;48.714;9.414;2023-05-14T07:22:17;15.18;;;11.00;;
41263;SDS011;26998;48.714;9.414;2023-05-14T07:24:44;15.02;;;13.02;;
41263;SDS011;26998;48.714;9.414;2023-05-14T07:27:10;13.82;;;10.43;;
41263;SDS011;26998;48.714;9.414;2023-05-14T07:29:37;13.13;;;11.07;;
41263;SDS011;26998;48.714;9.414;2023-05-14T07:32:04;12.40;;;10.65;;
41263;SDS011;26998;48.714;9.414;2023-05-14T07:34:30;15.38;;;11.07;;
41263;SDS011;26998;48.714;9.414;2023-05-14T07:36:59;14.52;;;11.80;;
41263;SDS011;26998;48.714;9.414;2023-05-14T07:39:26;13.02;;;11.07;;
41263;SDS011;26998;48.714;9.414;2023-05-14T07:41:53;13.57;;;11.43;;
41263;SDS011;26998;48.714;9.414;2023-05-14T07:44:20;13.98;;;11.60;;
41263;SDS011;26998;48.714;9.414;2023-05-14T07:46:47;13.88;;;11.43;;
41263;SDS011;26998;48.714;9.414;2023-05-14T07:49:14;11.65;;;10.15;;
41263;SDS011;26998;48.714;9.414;2023-05-14T07:51:40;14.80;;;11.07;;
41263;SDS011;26998;48.714;9.414;2023-05-14T07:54:07;11.30;;;10.10;;
41263;SDS011;26998;48.714;9.414;2023-05-14T07:56:34;13.65;;;11.13;;
41263;SDS011;26998;48.714;9.414;2023-05-14T07:59:00;15.27;;;12.48;;
41263;SDS011;26998;48.714;9.414;2023-05-14T08:01:28;12.75;;;10.98;;
41263;SDS011;26998;48.714;9.414;2023-05-14T08:03:55;12.18;;;10.88;;
41263;SDS011;26998;48.714;9.414;2023-05-14T08:06:23;12.63;;;11.32;;
41263;SDS011;26998;48.714;9.414;2023-05-14T08:08:50;13.88;;;11.80;;
41263;SDS011;26998;48.714;9.414;2023-05-14T08:11:17;11.70;;;10.48;;
41263;SDS011;26998;48.714;9.414;2023-05-14T08:13:43;12.68;;;11.07;;
41263;SDS011;26998;48.714;9.414;2023-05-14T08:16:10;12.40;;;9.98;;
41263;SDS011;26998;48.714;9.414;2023-05-14T08:18:37;10.02;;;8.48;;
41263;SDS011;26998;48.714;9.414;2023-05-14T08:21:04;15.23;;;10.40;;
41263;SDS011;26998;48.714;9.414;2023-05-14T08:23:31;10.75;;;9.60;;
41263;SDS011;26998;48.714;9.414;2023-05-14T08:25:57;11.25;;;10.13;;
41263;SDS011;26998;48.714;9.414;2023-05-14T08:28:24;10.73;;;9.57;;
41263;SDS011;26998;48.714;9.414;2023-05-14T08:30:51;11.30;;;9.38;;
41263;SDS011;26998;48.714;9.414;2023-05-14T08:33:17;10.02;;;8.73;;
41263;SDS011;26998;48.714;9.414;2023-05-14T08:35:44;11.27;;;9.75;;
41263;SDS011;26998;48.714;9.414;2023-05-14T08:38:11;10.35;;;9.25;;
41263;SDS011;26998;48.714;9.414;2023-05-14T08:40:38;11.18;;;9.45;;
41263;SDS011;26998;48.714;9.414;2023-05-14T08:43:05;11.13;;;9.32;;
41263;SDS011;26998;48.714;9.414;2023-05-14T08:45:34;12.63;;;10.68;;
41263;SDS011;26998;48.714;9.414;2023-05-14T08:48:03;10.27;;;9.13;;
41263;SDS011;26998;48.714;9.414;2023-05-14T08:50:32;11.93;;;10.30;;
41263;SDS011;26998;48.714;9.414;2023-05-14T08:52:59;10.48;;;9.48;;
41263;SDS011;26998;48.714;9.414;2023-05-14T08:55:25;10.63;;;9.38;;
41263;SDS011;26998;48.714;9.414;2023-05-14T08:57:54;12.38;;;10.25;;
41263;SDS011;26998;48.714;9.414;2023-05-14T09:00:20;11.20;;;9.55;;
41263;SDS011;26998;48.714;9.414;2023-05-14T09:02:47;9.65;;;8.50;;
41263;SDS011;26998;48.714;9.414;2023-05-14T09:05:14;11.65;;;9.82;;
41263;SDS011;26998;48.714;9.414;2023-05-14T09:07:42;12.02;;;10.23;;
41263;SDS011;26998;48.714;9.414;2023-05-14T09:10:10;12.57;;;10.07;;
41263;SDS011;26998;48.714;9.414;2023-05-14T09:12:36;11.95;;;10.45;;
41263;SDS011;26998;48.714;9.414;2023-05-14T09:15:04;12.85;;;9.88;;
41263;SDS011;26998;48.714;9.414;2023-05-14T09:17:32;11.27;;;10.07;;
41263;SDS011;26998;48.714;9.414;2023-05-14T09:19:59;12.93;;;9.60;;
41263;SDS011;26998;48.714;9.414;2023-05-14T09:22:27;14.90;;;10.05;;
41263;SDS011;26998;48.714;9.414;2023-05-14T09:25:05;11.02;;;9.20;;
41263;SDS011;26998;48.714;9.414;2023-05-14T09:27:35;12.60;;;9.60;;
41263;SDS011;26998;48.714;9.414;2023-05-14T09:30:06;10.45;;;9.30;;
41263;SDS011;26998;48.714;9.414;2023-05-14T09:32:37;11.35;;;10.00;;
41263;SDS011;26998;48.714;9.414;2023-05-14T09:35:23;13.38;;;9.02;;
41263;SDS011;26998;48.714;9.414;2023-05-14T09:37:52;10.55;;;9.32;;
41263;SDS011;26998;48.714;9.414;2023-05-14T09:40:22;10.30;;;9.20;;
41263;SDS011;26998;48.714;9.414;2023-05-14T09:42:51;12.23;;;9.68;;
41263;SDS011;26998;48.714;9.414;2023-05-14T09:45:18;13.05;;;10.73;;
41263;SDS011;26998;48.714;9.414;2023-05-14T09:47:44;13.80;;;10.55;;
41263;SDS011;26998;48.714;9.414;2023-05-14T09:50:11;14.35;;;11.30;;
41263;SDS011;26998;48.714;9.414;2023-05-14T09:52:38;13.30;;;10.57;;
41263;SDS011;26998;48.714;9.414;2023-05-14T09:55:07;12.13;;;10.90;;
41263;SDS011;26998;48.714;9.414;2023-05-14T09:57:36;14.85;;;11.45;;
41263;SDS011;26998;48.714;9.414;2023-05-14T10:00:04;11.63;;;10.38;;
41263;SDS011;26998;48.714;9.414;2023-05-14T10:02:34;11.98;;;9.60;;
41263;SDS011;26998;48.714;9.414;2023-05-14T10:05:05;10.25;;;8.98;;
41263;SDS011;26998;48.714;9.414;2023-05-14T10:07:44;9.35;;;8.30;;
41263;SDS011;26998;48.714;9.414;2023-05-14T10:10:17;10.73;;;9.63;;
41263;SDS011;26998;48.714;9.414;2023-05-14T10:12:55;10.57;;;8.88;;
41263;SDS011;26998;48.714;9.414;2023-05-14T10:15:29;10.63;;;8.43;;
41263;SDS011;26998;48.714;9.414;2023-05-14T10:18:05;11.77;;;8.75;;
41263;SDS011;26998;48.714;9.414;2023-05-14T10:20:36;7.30;;;6.60;;
41263;SDS011;26998;48.714;9.414;2023-05-14T10:23:05;9.57;;;7.90;;
41263;SDS011;26998;48.714;9.414;2023-05-14T10:25:37;8.32;;;7.53;;
41263;SDS011;26998;48.714;9.414;2023-05-14T10:28:06;7.88;;;6.22;;
41263;SDS011;26998;48.714;9.414;2023-05-14T10:30:33;8.30;;;7.22;;
41263;SDS011;26998;48.714;9.414;2023-05-14T10:33:06;9.25;;;7.38;;
41263;SDS011;26998;48.714;9.414;2023-05-14T10:38:27;9.15;;;7.72;;
41263;SDS011;26998;48.714;9.414;2023-05-14T10:41:04;10.73;;;8.60;;
41263;SDS011;26998;48.714;9.414;2023-05-14T10:43:37;11.02;;;8.30;;
41263;SDS011;26998;48.714;9.414;2023-05-14T10:46:06;7.30;;;6.60;;
41263;SDS011;26998;48.714;9.414;2023-05-14T10:48:35;8.70;;;7.80;;
41263;SDS011;26998;48.714;9.414;2023-05-14T10:51:03;8.05;;;7.05;;
41263;SDS011;26998;48.714;9.414;2023-05-14T10:53:33;11.68;;;8.20;;
41263;SDS011;26998;48.714;9.414;2023-05-14T10:56:02;10.13;;;7.05;;
41263;SDS011;26998;48.714;9.414;2023-05-14T10:58:41;8.13;;;7.10;;
41263;SDS011;26998;48.714;9.414;2023-05-14T11:01:09;7.88;;;7.07;;
41263;SDS011;26998;48.714;9.414;2023-05-14T11:03:38;8.48;;;7.07;;
41263;SDS011;26998;48.714;9.414;2023-05-14T11:06:06;8.55;;;6.78;;
41263;SDS011;26998;48.714;9.414;2023-05-14T11:08:34;7.47;;;6.28;;
41263;SDS011;26998;48.714;9.414;2023-05-14T11:11:02;8.05;;;5.75;;
41263;SDS011;26998;48.714;9.414;2023-05-14T11:13:28;6.63;;;5.10;;
41263;SDS011;26998;48.714;9.414;2023-05-14T11:15:55;8.15;;;5.50;;
41263;SDS011;26998;48.714;9.414;2023-05-14T11:18:29;5.70;;;5.10;;
41263;SDS011;26998;48.714;9.414;2023-05-14T11:21:00;4.93;;;4.43;;
41263;SDS011;26998;48.714;9.414;2023-05-14T11:23:28;5.45;;;4.95;;
41263;SDS011;26998;48.714;9.414;2023-05-14T11:25:55;5.38;;;4.45;;
41263;SDS011;26998;48.714;9.414;2023-05-14T11:28:23;5.07;;;4.63;;
41263;SDS011;26998;48.714;9.414;2023-05-14T11:30:52;6.80;;;5.00;;
41263;SDS011;26998;48.714;9.414;2023-05-14T11:33:19;5.22;;;4.63;;
41263;SDS011;26998;48.714;9.414;2023-05-14T11:35:46;4.43;;;4.03;;
41263;SDS011;26998;48.714;9.414;2023-05-14T11:38:16;5.03;;;3.70;;
41263;SDS011;26998;48.714;9.414;2023-05-14T11:40:57;4.90;;;4.40;;
41263;SDS011;26998;48.714;9.414;2023-05-14T11:43:25;4.25;;;3.85;;
41263;SDS011;26998;48.714;9.414;2023-05-14T11:45:52;4.30;;;3.90;;
41263;SDS011;26998;48.714;9.414;2023-05-14T11:48:21;5.78;;;4.28;;
41263;SDS011;26998;48.714;9.414;2023-05-14T11:50:49;4.78;;;4.38;;
41263;SDS011;26998;48.714;9.414;2023-05-14T11:53:18;4.60;;;4.15;;
41263;SDS011;26998;48.714;9.414;2023-05-14T11:55:56;6.38;;;5.55;;
41263;SDS011;26998;48.714;9.414;2023-05-14T11:58:23;5.63;;;4.60;;
41263;SDS011;26998;48.714;9.414;2023-05-14T12:00:51;6.18;;;4.40;;
41263;SDS011;26998;48.714;9.414;2023-05-14T12:03:18;4.97;;;4.47;;
41263;SDS011;26998;48.714;9.414;2023-05-14T12:05:56;4.80;;;4.32;;
41263;SDS011;26998;48.714;9.414;2023-05-14T12:08:28;4.72;;;4.13;;
41263;SDS011;26998;48.714;9.414;2023-05-14T12:10:59;5.40;;;4.57;;
41263;SDS011;26998;48.714;9.414;2023-05-14T12:13:26;5.93;;;4.90;;
41263;SDS011;26998;48.714;9.414;2023-05-14T12:15:54;5.43;;;3.95;;
41263;SDS011;26998;48.714;9.414;2023-05-14T12:18:25;4.68;;;4.13;;
41263;SDS011;26998;48.714;9.414;2023-05-14T12:20:54;6.90;;;4.53;;
41263;SDS011;26998;48.714;9.414;2023-05-14T12:23:25;3.95;;;3.65;;
41263;SDS011;26998;48.714;9.414;2023-05-14T12:25:54;4.80;;;4.32;;
41263;SDS011;26998;48.714;9.414;2023-05-14T12:28:21;4.40;;;3.97;;
41263;SDS011;26998;48.714;9.414;2023-05-14T12:30:54;4.03;;;3.63;;
41263;SDS011;26998;48.714;9.414;2023-05-14T12:33:22;5.00;;;3.78;;
41263;SDS011;26998;48.714;9.414;2023-05-14T12:35:49;4.47;;;4.07;;
41263;SDS011;26998;48.714;9.414;2023-05-14T12:38:16;4.63;;;4.10;;
41263;SDS011;26998;48.714;9.414;2023-05-14T12:40:42;4.50;;;4.10;;
41263;SDS011;26998;48.714;9.414;2023-05-14T12:43:09;4.65;;;4.20;;
41263;SDS011;26998;48.714;9.414;2023-05-14T12:45:35;4.65;;;4.00;;
41263;SDS011;26998;48.714;9.414;2023-05-14T12:48:02;4.75;;;4.25;;
41263;SDS011;26998;48.714;9.414;2023-05-14T12:50:29;4.32;;;3.92;;
41263;SDS011;26998;48.714;9.414;2023-05-14T12:52:57;5.03;;;3.85;;
41263;SDS011;26998;48.714;9.414;2023-05-14T12:55:24;4.60;;;4.10;;
41263;SDS011;26998;48.714;9.414;2023-05-14T12:57:51;6.93;;;6.22;;
41263;SDS011;26998;48.714;9.414;2023-05-14T13:00:19;4.43;;;4.03;;
41263;SDS011;26998;48.714;9.414;2023-05-14T13:02:47;4.22;;;3.83;;
41263;SDS011;26998;48.714;9.414;2023-05-14T13:05:13;6.85;;;6.25;;
41263;SDS011;26998;48.714;9.414;2023-05-14T13:07:40;5.47;;;4.38;;
41263;SDS011;26998;48.714;9.414;2023-05-14T13:10:07;4.60;;;4.20;;
41263;SDS011;26998;48.714;9.414;2023-05-14T13:12:37;5.63;;;3.83;;
41263;SDS011;26998;48.714;9.414;2023-05-14T13:15:04;3.95;;;3.15;;
41263;SDS011;26998;48.714;9.414;2023-05-14T13:17:32;4.63;;;4.07;;
41263;SDS011;26998;48.714;9.414;2023-05-14T13:19:59;6.00;;;4.20;;
41263;SDS011;26998;48.714;9.414;2023-05-14T13:22:27;3.97;;;3.55;;
41263;SDS011;26998;48.714;9.414;2023-05-14T13:24:53;4.63;;;3.15;;
41263;SDS011;26998;48.714;9.414;2023-05-14T13:27:21;4.03;;;2.63;;
41263;SDS011;26998;48.714;9.414;2023-05-14T13:29:54;3.65;;;3.30;;
41263;SDS011;26998;48.714;9.414;2023-05-14T13:32:21;2.97;;;2.70;;
41263;SDS011;26998;48.714;9.414;2023-05-14T13:34:48;3.38;;;2.85;;
41263;SDS011;26998;48.714;9.414;2023-05-14T13:37:14;4.07;;;3.40;;
41263;SDS011;26998;48.714;9.414;2023-05-14T13:39:41;3.55;;;2.97;;
41263;SDS011;26998;48.714;9.414;2023-05-14T13:42:08;3.00;;;2.80;;
41263;SDS011;26998;48.714;9.414;2023-05-14T13:44:35;3.40;;;3.10;;
41263;SDS011;26998;48.714;9.414;2023-05-14T13:49:32;4.22;;;3.15;;
41263;SDS011;26998;48.714;9.414;2023-05-14T13:51:59;4.00;;;2.78;;
41263;SDS011;26998;48.714;9.414;2023-05-14T13:54:26;2.90;;;2.63;;
41263;SDS011;26998;48.714;9.414;2023-05-14T13:56:52;4.03;;;3.03;;
41263;SDS011;26998;48.714;9.414;2023-05-14T13:59:19;3.67;;;3.03;;
41263;SDS011;26998;48.714;9.414;2023-05-14T14:01:47;4.80;;;3.30;;
41263;SDS011;26998;48.714;9.414;2023-05-14T14:04:13;3.20;;;3.00;;
41263;SDS011;26998;48.714;9.414;2023-05-14T14:06:40;3.70;;;3.15;;
41263;SDS011;26998;48.714;9.414;2023-05-14T14:09:07;3.15;;;2.85;;
41263;SDS011;26998;48.714;9.414;2023-05-14T14:11:42;3.33;;;3.03;;
41263;SDS011;26998;48.714;9.414;2023-05-14T14:14:09;3.28;;;2.97;;
41263;SDS011;26998;48.714;9.414;2023-05-14T14:16:35;3.55;;;3.25;;
41263;SDS011;26998;48.714;9.414;2023-05-14T14:19:03;3.47;;;3.17;;
41263;SDS011;26998;48.714;9.414;2023-05-14T14:21:29;3.88;;;3.10;;
41263;SDS011;26998;48.714;9.414;2023-05-14T14:23:56;3.35;;;2.85;;
41263;SDS011;26998;48.714;9.414;2023-05-14T14:26:23;2.40;;;2.20;;
41263;SDS011;26998;48.714;9.414;2023-05-14T14:28:49;3.08;;;2.78;;
41263;SDS011;26998;48.714;9.414;2023-05-14T14:31:16;4.03;;;3.20;;
41263;SDS011;26998;48.714;9.414;2023-05-14T14:33:42;4.18;;;2.90;;
41263;SDS011;26998;48.714;9.414;2023-05-14T14:36:09;3.25;;;2.97;;
41263;SDS011;26998;48.714;9.414;2023-05-14T14:38:37;3.55;;;3.10;;
41263;SDS011;26998;48.714;9.414;2023-05-14T14:41:04;3.30;;;2.75;;
41263;SDS011;26998;48.714;9.414;2023-05-14T14:43:31;3.30;;;3.00;;
41263;SDS011;26998;48.714;9.414;2023-05-14T14:45:58;3.20;;;3.00;;
41263;SDS011;26998;48.714;9.414;2023-05-14T14:48:25;3.20;;;3.00;;